createdAt,value
2017-07-03T00:00:13.326Z,88.90
2017-07-03T00:02:39.844Z,88.50
2017-07-03T00:05:06.329Z,88.70
2017-07-03T00:07:32.805Z,88.80
2017-07-03T00:09:59.300Z,88.70
2017-07-03T00:12:25.772Z,89.80
2017-07-03T00:14:52.744Z,88.80
2017-07-03T00:17:19.222Z,88.90
2017-07-03T00:19:46.434Z,89.20
2017-07-03T00:22:13.777Z,89.10
2017-07-03T00:24:40.271Z,89.00
2017-07-03T00:27:06.757Z,89.10
2017-07-03T00:29:33.295Z,89.30
2017-07-03T00:31:59.793Z,89.40
2017-07-03T00:34:26.317Z,88.80
2017-07-03T00:36:52.801Z,89.20
2017-07-03T00:39:19.451Z,89.60
2017-07-03T00:41:46.654Z,89.70
2017-07-03T00:44:13.126Z,89.00
2017-07-03T00:46:39.648Z,89.30
2017-07-03T00:49:06.096Z,88.80
2017-07-03T00:51:32.655Z,89.00
2017-07-03T00:53:59.115Z,89.00
2017-07-03T00:56:25.658Z,89.80
2017-07-03T00:58:52.150Z,89.20
2017-07-03T01:01:18.606Z,89.20
2017-07-03T01:03:45.167Z,89.50
2017-07-03T01:06:11.655Z,89.10
2017-07-03T01:08:38.191Z,89.50
2017-07-03T01:11:04.665Z,89.70
2017-07-03T01:13:31.143Z,90.00
2017-07-03T01:15:58.394Z,89.40
2017-07-03T01:18:25.584Z,90.10
2017-07-03T01:20:52.279Z,90.10
2017-07-03T01:23:19.504Z,89.90
2017-07-03T01:25:45.954Z,89.80
2017-07-03T01:28:13.209Z,90.10
2017-07-03T01:30:39.731Z,90.00
2017-07-03T01:33:06.993Z,89.70
2017-07-03T01:35:34.242Z,89.50
2017-07-03T01:38:01.478Z,89.60
2017-07-03T01:40:28.782Z,90.20
2017-07-03T01:42:55.325Z,89.80
2017-07-03T01:45:21.850Z,89.90
2017-07-03T01:47:48.417Z,90.00
2017-07-03T01:50:14.947Z,89.90
2017-07-03T01:52:41.558Z,89.90
2017-07-03T01:55:08.038Z,90.00
2017-07-03T01:57:35.309Z,90.10
2017-07-03T02:00:01.804Z,90.10
2017-07-03T02:02:28.297Z,90.10
2017-07-03T02:04:54.814Z,90.20
2017-07-03T02:07:21.287Z,90.20
2017-07-03T02:09:47.787Z,90.30
2017-07-03T02:12:14.291Z,90.20
2017-07-03T02:14:41.505Z,90.30
2017-07-03T02:17:08.033Z,90.30
2017-07-03T02:19:34.499Z,90.40
2017-07-03T02:22:01.727Z,90.10
2017-07-03T02:24:28.236Z,90.10
2017-07-03T02:26:54.699Z,90.30
2017-07-03T02:29:21.236Z,90.30
2017-07-03T02:31:48.465Z,90.30
2017-07-03T02:34:14.975Z,90.60
2017-07-03T02:36:41.468Z,90.30
2017-07-03T02:39:08.683Z,90.40
2017-07-03T02:41:35.160Z,90.40
2017-07-03T02:44:02.363Z,90.60
2017-07-03T02:46:28.883Z,90.60
2017-07-03T02:48:55.365Z,90.50
2017-07-03T02:51:21.910Z,90.40
2017-07-03T02:53:48.429Z,90.50
2017-07-03T02:56:15.638Z,90.50
2017-07-03T02:58:42.160Z,90.50
2017-07-03T03:01:08.626Z,90.70
2017-07-03T03:03:35.159Z,90.60
2017-07-03T03:06:01.634Z,90.50
2017-07-03T03:08:28.110Z,90.30
2017-07-03T03:10:54.604Z,90.40
2017-07-03T03:13:21.078Z,90.50
2017-07-03T03:15:47.589Z,90.70
2017-07-03T03:18:14.065Z,90.30
2017-07-03T03:20:41.335Z,90.20
2017-07-03T03:23:07.831Z,90.10
2017-07-03T03:25:34.386Z,90.10
2017-07-03T03:28:01.613Z,90.20
2017-07-03T03:30:28.089Z,90.20
2017-07-03T03:32:54.627Z,90.20
2017-07-03T03:35:21.146Z,90.30
2017-07-03T03:37:47.612Z,90.30
2017-07-03T03:40:14.132Z,90.20
2017-07-03T03:42:40.615Z,90.30
2017-07-03T03:45:07.133Z,90.20
2017-07-03T03:47:33.598Z,90.20
2017-07-03T03:50:00.049Z,90.30
2017-07-03T03:52:26.601Z,90.30
2017-07-03T03:54:53.122Z,90.40
2017-07-03T03:57:19.657Z,90.50
2017-07-03T03:59:46.133Z,90.50
2017-07-03T04:02:12.616Z,90.60
2017-07-03T04:04:39.096Z,90.50
2017-07-03T04:07:05.580Z,90.60
2017-07-03T04:09:32.103Z,90.40
2017-07-03T04:11:59.350Z,90.20
2017-07-03T04:14:26.606Z,90.70
2017-07-03T04:16:53.090Z,90.40
2017-07-03T04:19:19.582Z,90.30
2017-07-03T04:21:46.070Z,90.30
2017-07-03T04:24:12.677Z,90.40
2017-07-03T04:26:39.173Z,90.30
2017-07-03T04:29:06.408Z,90.30
2017-07-03T04:31:33.764Z,90.10
2017-07-03T04:34:00.991Z,90.20
2017-07-03T04:36:27.468Z,90.50
2017-07-03T04:38:53.962Z,90.20
2017-07-03T04:41:20.516Z,90.10
2017-07-03T04:43:47.726Z,90.20
2017-07-03T04:46:14.266Z,90.20
2017-07-03T04:48:40.725Z,90.20
2017-07-03T04:51:08.005Z,90.10
2017-07-03T04:53:34.588Z,90.10
2017-07-03T04:56:01.078Z,90.20
2017-07-03T04:58:27.741Z,90.00
2017-07-03T05:00:54.215Z,90.20
2017-07-03T05:03:21.638Z,90.20
2017-07-03T05:05:48.137Z,90.20
2017-07-03T05:08:14.637Z,90.20
2017-07-03T05:10:41.133Z,90.10
2017-07-03T05:13:07.615Z,90.00
2017-07-03T05:15:34.142Z,90.00
2017-07-03T05:18:00.626Z,90.00
2017-07-03T05:20:27.102Z,90.10
2017-07-03T05:22:54.368Z,90.00
2017-07-03T05:25:20.857Z,90.00
2017-07-03T05:27:47.332Z,89.80
2017-07-03T05:30:13.854Z,89.70
2017-07-03T05:32:41.090Z,90.00
2017-07-03T05:35:07.582Z,90.00
2017-07-03T05:37:34.055Z,89.90
2017-07-03T05:40:00.549Z,89.60
2017-07-03T05:42:27.050Z,89.10
2017-07-03T05:44:53.562Z,88.60
2017-07-03T05:47:20.782Z,89.20
2017-07-03T05:49:47.312Z,89.10
2017-07-03T05:52:13.809Z,88.60
2017-07-03T05:54:40.483Z,88.70
2017-07-03T05:57:06.979Z,88.50
2017-07-03T05:59:33.514Z,88.30
2017-07-03T06:02:00.145Z,88.30
2017-07-03T06:04:26.641Z,88.40
2017-07-03T06:06:53.136Z,87.80
2017-07-03T06:09:19.648Z,88.00
2017-07-03T06:11:46.144Z,87.20
2017-07-03T06:14:13.409Z,87.40
2017-07-03T06:16:40.688Z,87.50
2017-07-03T06:19:07.217Z,87.50
2017-07-03T06:21:33.706Z,87.00
2017-07-03T06:24:00.927Z,86.90
2017-07-03T06:26:27.484Z,86.60
2017-07-03T06:28:53.985Z,86.70
2017-07-03T06:31:20.500Z,86.60
2017-07-03T06:33:47.016Z,86.70
2017-07-03T06:36:13.490Z,85.90
2017-07-03T06:38:40.241Z,87.20
2017-07-03T06:41:06.738Z,86.20
2017-07-03T06:43:33.195Z,85.00
2017-07-03T06:45:59.705Z,85.30
2017-07-03T06:48:26.169Z,84.70
2017-07-03T06:50:52.692Z,84.70
2017-07-03T06:53:19.162Z,84.50
2017-07-03T06:55:46.470Z,83.70
2017-07-03T06:58:12.992Z,83.70
2017-07-03T07:00:39.486Z,82.40
2017-07-03T07:03:06.734Z,83.10
2017-07-03T07:05:33.238Z,83.20
2017-07-03T07:07:59.728Z,83.40
2017-07-03T07:10:26.202Z,84.10
2017-07-03T07:12:52.807Z,84.00
2017-07-03T07:15:19.293Z,84.60
2017-07-03T07:17:46.536Z,84.20
2017-07-03T07:20:13.337Z,84.10
2017-07-03T07:22:39.834Z,84.60
2017-07-03T07:25:06.337Z,84.00
2017-07-03T07:27:33.340Z,84.50
2017-07-03T07:29:59.825Z,84.20
2017-07-03T07:32:27.099Z,84.90
2017-07-03T07:34:53.609Z,84.20
2017-07-03T07:37:20.864Z,82.70
2017-07-03T07:39:48.114Z,82.40
2017-07-03T07:42:14.634Z,82.40
2017-07-03T07:44:41.154Z,82.10
2017-07-03T07:47:07.635Z,81.50
2017-07-03T07:49:34.124Z,81.50
2017-07-03T07:52:00.648Z,81.10
2017-07-03T07:54:27.144Z,79.50
2017-07-03T07:56:53.719Z,80.10
2017-07-03T07:59:20.220Z,79.50
2017-07-03T08:01:46.772Z,78.90
2017-07-03T08:04:13.251Z,78.50
2017-07-03T08:06:40.510Z,78.80
2017-07-03T08:09:06.987Z,78.80
2017-07-03T08:11:33.487Z,77.80
2017-07-03T08:13:59.953Z,78.30
2017-07-03T08:16:26.444Z,79.20
2017-07-03T08:18:52.938Z,78.80
2017-07-03T08:21:19.473Z,80.00
2017-07-03T08:23:45.933Z,79.50
2017-07-03T08:26:12.453Z,80.60
2017-07-03T08:28:39.731Z,78.20
2017-07-03T08:31:06.217Z,78.10
2017-07-03T08:33:32.773Z,79.30
2017-07-03T08:35:59.999Z,78.80
2017-07-03T08:38:26.558Z,78.80
2017-07-03T08:40:53.096Z,77.40
2017-07-03T08:43:20.313Z,75.10
2017-07-03T08:45:46.847Z,75.20
2017-07-03T08:48:13.321Z,75.00
2017-07-03T08:50:39.805Z,76.30
2017-07-03T08:53:06.352Z,77.30
2017-07-03T08:55:32.819Z,76.20
2017-07-03T08:58:00.106Z,75.40
2017-07-03T09:00:26.583Z,75.30
2017-07-03T09:02:53.813Z,72.50
2017-07-03T09:05:20.363Z,72.40
2017-07-03T09:07:46.857Z,73.90
2017-07-03T09:10:13.338Z,71.30
2017-07-03T09:12:40.612Z,69.00
2017-07-03T09:15:07.077Z,68.90
2017-07-03T09:17:33.723Z,68.00
2017-07-03T09:20:00.195Z,67.70
2017-07-03T09:22:27.393Z,66.60
2017-07-03T09:24:53.924Z,66.60
2017-07-03T09:27:20.421Z,67.00
2017-07-03T09:29:46.900Z,66.30
2017-07-03T09:32:13.403Z,66.50
2017-07-03T09:34:39.860Z,66.10
2017-07-03T09:37:06.391Z,64.40
2017-07-03T09:39:32.929Z,62.90
2017-07-03T09:41:59.405Z,59.10
2017-07-03T09:44:26.634Z,60.00
2017-07-03T09:47:00.128Z,60.00
2017-07-03T09:49:26.594Z,59.90
2017-07-03T09:51:53.145Z,59.50
2017-07-03T09:54:19.618Z,58.50
2017-07-03T09:56:46.294Z,56.30
2017-07-03T09:59:12.795Z,58.80
2017-07-03T10:01:39.262Z,57.70
2017-07-03T10:04:05.788Z,56.60
2017-07-03T10:06:33.012Z,58.50
2017-07-03T10:08:59.481Z,58.50
2017-07-03T10:11:26.014Z,57.70
2017-07-03T10:13:52.495Z,57.20
2017-07-03T10:16:19.109Z,60.70
2017-07-03T10:18:45.588Z,60.20
2017-07-03T10:21:12.124Z,60.60
2017-07-03T10:23:38.583Z,60.00
2017-07-03T10:26:05.034Z,58.90
2017-07-03T10:28:31.594Z,59.30
2017-07-03T10:30:58.091Z,58.20
2017-07-03T10:33:24.557Z,59.30
2017-07-03T10:35:51.074Z,58.90
2017-07-03T10:38:17.587Z,58.50
2017-07-03T10:40:44.090Z,59.80
2017-07-03T10:43:11.285Z,57.20
2017-07-03T10:45:37.785Z,57.00
2017-07-03T10:48:04.314Z,59.10
2017-07-03T10:50:31.523Z,56.90
2017-07-03T10:52:58.068Z,56.80
2017-07-03T10:55:25.309Z,56.10
2017-07-03T10:57:51.826Z,56.00
2017-07-03T11:00:18.357Z,52.90
2017-07-03T11:02:44.832Z,56.40
2017-07-03T11:05:12.092Z,51.30
2017-07-03T11:07:39.323Z,52.40
2017-07-03T11:10:06.035Z,52.40
2017-07-03T11:12:32.533Z,53.20
2017-07-03T11:14:59.021Z,52.70
2017-07-03T11:17:25.702Z,52.60
2017-07-03T11:19:52.183Z,52.60
2017-07-03T11:22:18.652Z,52.80
2017-07-03T11:24:45.193Z,52.90
2017-07-03T11:27:11.691Z,52.30
2017-07-03T11:29:38.203Z,53.00
2017-07-03T11:32:04.715Z,55.30
2017-07-03T11:34:31.247Z,52.70
2017-07-03T11:36:57.735Z,52.90
2017-07-03T11:39:24.227Z,54.30
2017-07-03T11:41:50.734Z,54.50
2017-07-03T11:44:17.213Z,55.70
2017-07-03T11:46:43.714Z,55.30
2017-07-03T11:49:10.195Z,57.60
2017-07-03T11:51:36.685Z,55.00
2017-07-03T11:54:03.223Z,55.90
2017-07-03T11:56:29.682Z,54.20
2017-07-03T11:58:56.255Z,56.00
2017-07-03T12:01:22.735Z,55.40
2017-07-03T12:03:49.246Z,55.20
2017-07-03T12:06:15.741Z,53.90
2017-07-03T12:08:43.884Z,52.50
2017-07-03T12:11:10.341Z,52.50
2017-07-03T12:13:37.716Z,55.40
2017-07-03T12:16:04.208Z,55.40
2017-07-03T12:18:30.646Z,54.20
2017-07-03T12:20:57.951Z,56.00
2017-07-03T12:23:24.445Z,55.20
2017-07-03T12:25:50.948Z,55.60
2017-07-03T12:28:17.472Z,54.50
2017-07-03T12:30:43.930Z,53.70
2017-07-03T12:33:11.187Z,54.70
2017-07-03T12:35:38.414Z,56.40
2017-07-03T12:38:04.901Z,56.40
2017-07-03T12:40:31.417Z,56.30
2017-07-03T12:42:58.625Z,55.00
2017-07-03T12:45:25.122Z,54.90
2017-07-03T12:47:51.601Z,56.10
2017-07-03T12:50:18.114Z,56.70
2017-07-03T12:52:44.619Z,54.20
2017-07-03T12:55:11.158Z,55.50
2017-07-03T12:57:37.643Z,56.40
2017-07-03T13:00:05.491Z,55.30
2017-07-03T13:02:31.972Z,55.80
2017-07-03T13:04:58.476Z,56.50
2017-07-03T13:07:25.886Z,55.20
2017-07-03T13:09:52.388Z,55.10
2017-07-03T13:12:18.897Z,55.40
2017-07-03T13:14:46.190Z,56.40
2017-07-03T13:17:12.683Z,56.40
2017-07-03T13:19:39.966Z,57.20
2017-07-03T13:22:06.490Z,57.10
2017-07-03T13:24:32.979Z,54.60
2017-07-03T13:26:59.702Z,53.30
2017-07-03T13:29:27.132Z,54.90
2017-07-03T13:31:53.634Z,52.30
2017-07-03T13:34:20.896Z,53.00
2017-07-03T13:36:47.371Z,53.00
2017-07-03T13:39:13.890Z,54.10
2017-07-03T13:41:40.400Z,53.70
2017-07-03T13:44:06.953Z,54.70
2017-07-03T13:46:33.445Z,53.70
2017-07-03T13:49:00.705Z,54.50
2017-07-03T13:51:27.933Z,54.40
2017-07-03T13:53:55.180Z,55.60
2017-07-03T13:56:21.877Z,55.30
2017-07-03T13:58:48.352Z,55.10
2017-07-03T14:01:14.877Z,53.70
2017-07-03T14:03:41.407Z,53.80
2017-07-03T14:06:07.889Z,53.00
2017-07-03T14:08:34.427Z,53.80
2017-07-03T14:11:00.901Z,54.10
2017-07-03T14:13:27.426Z,52.50
2017-07-03T14:15:53.884Z,52.30
2017-07-03T14:18:20.354Z,52.10
2017-07-03T14:20:46.854Z,52.20
2017-07-03T14:23:14.097Z,53.90
2017-07-03T14:25:40.642Z,53.80
2017-07-03T14:28:07.879Z,53.10
2017-07-03T14:30:34.364Z,53.10
2017-07-03T14:33:00.878Z,52.60
2017-07-03T14:35:27.367Z,52.20
2017-07-03T14:37:53.883Z,52.80
2017-07-03T14:40:20.342Z,52.10
2017-07-03T14:42:46.804Z,49.70
2017-07-03T14:45:13.314Z,51.00
2017-07-03T14:47:39.797Z,52.40
2017-07-03T14:50:06.537Z,53.50
2017-07-03T14:52:33.028Z,52.20
2017-07-03T14:55:00.232Z,54.10
2017-07-03T14:57:26.773Z,54.10
2017-07-03T14:59:53.246Z,52.40
2017-07-03T15:02:20.526Z,54.70
2017-07-03T15:04:47.005Z,54.70
2017-07-03T15:07:13.574Z,55.50
2017-07-03T15:09:40.042Z,53.20
2017-07-03T15:12:06.545Z,53.70
2017-07-03T15:14:33.079Z,54.90
2017-07-03T15:16:59.563Z,53.90
2017-07-03T15:19:26.041Z,55.20
2017-07-03T15:21:52.582Z,54.30
2017-07-03T15:24:19.122Z,54.40
2017-07-03T15:26:45.685Z,55.10
2017-07-03T15:29:12.205Z,54.80
2017-07-03T15:31:38.701Z,55.00
2017-07-03T15:36:38.342Z,50.70
2017-07-03T15:39:04.875Z,51.30
2017-07-03T15:41:31.352Z,52.10
2017-07-03T15:43:57.971Z,51.60
2017-07-03T15:46:24.461Z,48.60
2017-07-03T15:48:51.706Z,52.20
2017-07-03T15:51:18.221Z,51.60
2017-07-03T15:53:45.446Z,51.50
2017-07-03T15:56:11.993Z,50.90
2017-07-03T15:58:38.507Z,49.20
2017-07-03T16:01:05.001Z,49.00
2017-07-03T16:03:31.884Z,49.90
2017-07-03T16:05:58.384Z,49.10
2017-07-03T16:08:24.888Z,51.10
2017-07-03T16:10:52.112Z,50.20
2017-07-03T16:13:18.674Z,50.20
2017-07-03T16:15:46.162Z,51.10
2017-07-03T16:18:12.662Z,51.10
2017-07-03T16:20:39.890Z,51.50
2017-07-03T16:23:06.429Z,51.50
2017-07-03T16:25:32.891Z,52.30
2017-07-03T16:27:59.377Z,52.20
2017-07-03T16:30:25.940Z,53.10
2017-07-03T16:32:52.539Z,53.60
2017-07-03T16:35:19.073Z,53.30
2017-07-03T16:37:45.579Z,53.80
2017-07-03T16:40:12.075Z,52.70
2017-07-03T16:42:39.397Z,51.10
2017-07-03T16:45:05.857Z,51.10
2017-07-03T16:47:33.111Z,52.30
2017-07-03T16:50:00.387Z,51.80
2017-07-03T16:52:26.866Z,51.70
2017-07-03T16:54:53.422Z,53.10
2017-07-03T16:57:20.675Z,55.50
2017-07-03T16:59:47.941Z,55.20
2017-07-03T17:02:14.438Z,55.30
2017-07-03T17:04:40.974Z,55.10
2017-07-03T17:07:07.473Z,55.20
2017-07-03T17:09:33.935Z,54.40
2017-07-03T17:12:00.477Z,55.40
2017-07-03T17:14:26.943Z,54.90
2017-07-03T17:16:53.695Z,55.80
2017-07-03T17:19:20.231Z,55.80
2017-07-03T17:21:46.690Z,57.00
2017-07-03T17:24:13.561Z,56.70
2017-07-03T17:26:40.859Z,57.20
2017-07-03T17:29:07.389Z,57.20
2017-07-03T17:31:33.898Z,57.10
2017-07-03T17:34:01.133Z,56.90
2017-07-03T17:36:28.380Z,58.10
2017-07-03T17:38:54.930Z,57.40
2017-07-03T17:41:21.453Z,57.90
2017-07-03T17:43:48.692Z,56.70
2017-07-03T17:46:15.211Z,56.60
2017-07-03T17:48:41.682Z,57.70
2017-07-03T17:51:08.242Z,57.10
2017-07-03T17:53:34.716Z,56.40
2017-07-03T17:56:01.196Z,56.60
2017-07-03T17:58:27.718Z,58.20
2017-07-03T18:00:54.202Z,56.60
2017-07-03T18:03:20.715Z,57.20
2017-07-03T18:05:47.245Z,57.20
2017-07-03T18:08:13.755Z,57.70
2017-07-03T18:10:40.254Z,58.00
2017-07-03T18:13:06.727Z,56.10
2017-07-03T18:15:33.275Z,57.90
2017-07-03T18:17:59.741Z,59.00
2017-07-03T18:20:26.333Z,58.70
2017-07-03T18:22:52.833Z,57.50
2017-07-03T18:25:20.252Z,58.30
2017-07-03T18:27:46.749Z,58.30
2017-07-03T18:30:13.251Z,59.80
2017-07-03T18:32:40.530Z,58.80
2017-07-03T18:35:07.029Z,58.80
2017-07-03T18:37:33.675Z,59.10
2017-07-03T18:40:00.920Z,58.80
2017-07-03T18:42:28.191Z,60.20
2017-07-03T18:44:54.750Z,60.20
2017-07-03T18:47:21.288Z,60.90
2017-07-03T18:49:47.843Z,61.20
2017-07-03T18:52:14.350Z,60.20
2017-07-03T18:54:40.920Z,58.20
2017-07-03T18:57:07.408Z,59.80
2017-07-03T18:59:33.916Z,60.70
2017-07-03T19:02:01.212Z,59.40
2017-07-03T19:04:27.706Z,59.40
2017-07-03T19:06:55.249Z,59.80
2017-07-03T19:09:21.834Z,59.50
2017-07-03T19:11:48.324Z,60.40
2017-07-03T19:14:15.591Z,60.50
2017-07-03T19:16:42.074Z,60.50
2017-07-03T19:19:08.585Z,60.60
2017-07-03T19:21:35.040Z,60.60
2017-07-03T19:24:01.599Z,59.90
2017-07-03T19:26:28.117Z,60.10
2017-07-03T19:28:54.583Z,60.50
2017-07-03T19:31:21.167Z,60.50
2017-07-03T19:33:54.583Z,60.50
2017-07-03T19:36:22.110Z,60.90
2017-07-03T19:38:48.623Z,60.80
2017-07-03T19:41:15.114Z,61.70
2017-07-03T19:43:42.397Z,62.10
2017-07-03T19:46:08.917Z,62.10
2017-07-03T19:48:35.472Z,62.60
2017-07-03T19:51:01.974Z,63.00
2017-07-03T19:53:29.260Z,64.00
2017-07-03T19:55:55.775Z,64.00
2017-07-03T19:58:22.318Z,64.30
2017-07-03T20:00:49.103Z,64.50
2017-07-03T20:03:15.608Z,65.00
2017-07-03T20:05:42.091Z,65.20
2017-07-03T20:08:10.209Z,65.60
2017-07-03T20:10:36.676Z,65.40
2017-07-03T20:13:03.385Z,65.70
2017-07-03T20:15:29.866Z,65.70
2017-07-03T20:17:56.309Z,65.80
2017-07-03T20:20:22.923Z,66.20
2017-07-03T20:22:49.436Z,66.20
2017-07-03T20:25:15.905Z,66.20
2017-07-03T20:27:43.143Z,66.80
2017-07-03T20:30:10.433Z,66.90
2017-07-03T20:32:36.958Z,67.00
2017-07-03T20:35:03.424Z,67.30
2017-07-03T20:37:29.978Z,67.70
2017-07-03T20:39:56.439Z,67.90
2017-07-03T20:42:23.765Z,68.20
2017-07-03T20:44:50.496Z,68.10
2017-07-03T20:47:17.034Z,68.40
2017-07-03T20:49:43.567Z,68.90
2017-07-03T20:52:10.096Z,69.00
2017-07-03T20:54:36.563Z,69.30
2017-07-03T20:57:03.823Z,70.00
2017-07-03T20:59:30.321Z,70.00
2017-07-03T21:01:56.851Z,70.30
2017-07-03T21:04:23.318Z,70.10
2017-07-03T21:06:49.929Z,70.40
2017-07-03T21:09:17.176Z,70.40
2017-07-03T21:11:43.643Z,70.40
2017-07-03T21:14:10.146Z,70.50
2017-07-03T21:16:37.370Z,71.00
2017-07-03T21:19:03.983Z,71.00
2017-07-03T21:21:30.483Z,71.00
2017-07-03T21:23:56.958Z,70.90
2017-07-03T21:26:23.538Z,70.90
2017-07-03T21:28:50.734Z,70.90
2017-07-03T21:31:17.465Z,70.80
2017-07-03T21:33:44.032Z,71.30
2017-07-03T21:36:10.507Z,71.30
2017-07-03T21:38:37.025Z,71.50
2017-07-03T21:41:04.220Z,72.30
2017-07-03T21:43:30.706Z,72.30
2017-07-03T21:45:57.969Z,72.50
2017-07-03T21:48:24.459Z,72.50
2017-07-03T21:50:50.965Z,72.80
2017-07-03T21:53:17.429Z,73.00
2017-07-03T21:55:44.037Z,73.00
2017-07-03T21:58:10.512Z,72.90
2017-07-03T22:00:36.975Z,73.00
2017-07-03T22:03:03.482Z,73.00
2017-07-03T22:05:30.659Z,73.10
2017-07-03T22:07:57.226Z,73.10
2017-07-03T22:10:23.717Z,73.00
2017-07-03T22:12:50.228Z,73.00
2017-07-03T22:15:17.452Z,73.50
2017-07-03T22:17:43.922Z,73.50
2017-07-03T22:20:11.209Z,74.00
2017-07-03T22:22:37.762Z,73.90
2017-07-03T22:25:04.257Z,74.10
2017-07-03T22:27:30.777Z,74.10
2017-07-03T22:29:57.246Z,74.30
2017-07-03T22:32:23.824Z,74.50
2017-07-03T22:34:51.064Z,74.50
2017-07-03T22:37:17.542Z,74.50
2017-07-03T22:39:44.149Z,74.60
2017-07-03T22:42:11.406Z,74.40
2017-07-03T22:44:38.643Z,74.40
2017-07-03T22:47:05.141Z,74.30
2017-07-03T22:49:31.602Z,74.30
2017-07-03T22:51:58.137Z,74.50
2017-07-03T22:54:24.607Z,75.40
2017-07-03T22:56:51.098Z,74.80
2017-07-03T22:59:17.575Z,74.80
2017-07-03T23:01:44.054Z,74.90
2017-07-03T23:04:10.666Z,75.10
2017-07-03T23:06:37.171Z,74.90
2017-07-03T23:09:03.790Z,74.90
2017-07-03T23:11:30.287Z,74.40
2017-07-03T23:13:56.780Z,73.60
2017-07-03T23:16:23.434Z,73.80
2017-07-03T23:18:49.917Z,73.90
2017-07-03T23:21:24.301Z,73.60
2017-07-03T23:23:50.789Z,73.60
2017-07-03T23:26:17.278Z,73.50
2017-07-03T23:28:43.783Z,74.10
2017-07-03T23:31:10.261Z,73.40
2017-07-03T23:33:37.456Z,73.30
2017-07-03T23:36:03.981Z,73.30
2017-07-03T23:38:30.462Z,73.30
2017-07-03T23:40:56.949Z,73.10
2017-07-03T23:43:23.435Z,72.80
2017-07-03T23:45:50.131Z,73.00
2017-07-03T23:48:16.602Z,73.50
2017-07-03T23:50:43.076Z,73.80
2017-07-03T23:53:09.606Z,73.90
2017-07-03T23:55:36.066Z,73.90
2017-07-03T23:58:02.605Z,74.00
